KGFK

Grand Forks International Airport

Airport
ICAO code
KGFK
Summary
ICAO Region
NAM
ICAO Territory
Location

Grand Forks, North Dakota,

Elevation
845 ft
Coordinates
47° 57' 4" N , 97° 10' 15" W
KCC
Airport CFIT
Altimeter Temperature Error Correction
Airport GND
Aircraft Ground De/Anti Icing
Airport LOS
Parallel Runway Operation
Airport RE
Landing on Contaminated Runways
Airport WX
Cumulonimbus
Metar
Observation
KGFK 070753Z AUTO 30006KT 10SM CLR M06/M08 A3060 RMK AO2 SLP374 T10561078
Station
Grand Forks, Grand Forks International Airport
Date/Time
2022-10-07 07:53:00
Wind direction
300°
Wind speed
06 kts
Lowest cloud amount
n/a
Temperature
-5.6°C
Dew point
-7.8°C
Humidity
84%
Weather condition
n/a

Description

Grand Forks International Airport is a public use airport located 8 km northwest of the central business district of Grand Forks, a city in Grand Forks County, North Dakota.

Climatology

Humid Continental climate (Köppen climate classification Dfb) - Variable weather patterns and a large seasonal temperature variance. Summers are often warm and humid with frequent thunderstorms and winters can be very cold with frequent snowfall and persistent snow cover.

Airport map

Aerial View

SKYbrary Partners:

Safety knowledge contributed by: